createdAt,value
2017-02-28T00:00:22.841Z,8.30
2017-02-28T00:01:18.509Z,8.33
2017-02-28T00:02:18.060Z,8.31
2017-02-28T00:03:18.076Z,8.27
2017-02-28T00:04:18.076Z,8.28
2017-02-28T00:05:21.630Z,8.31
2017-02-28T00:06:21.741Z,8.30
2017-02-28T00:08:17.299Z,8.32
2017-02-28T00:09:28.665Z,8.35
2017-02-28T00:13:17.005Z,8.30
2017-02-28T00:15:27.744Z,8.35
2017-02-28T00:16:17.407Z,8.31
2017-02-28T00:17:28.713Z,8.26
2017-02-28T00:18:17.488Z,8.31
2017-02-28T00:19:16.601Z,8.32
2017-02-28T00:20:12.644Z,8.32
2017-02-28T00:21:17.080Z,8.35
2017-02-28T00:22:16.934Z,8.37
2017-02-28T00:23:16.928Z,8.30
2017-02-28T00:24:22.443Z,8.28
2017-02-28T00:25:22.559Z,8.31
2017-02-28T00:26:17.525Z,8.32
2017-02-28T00:27:16.787Z,8.36
2017-02-28T00:28:17.281Z,8.38
2017-02-28T00:29:17.405Z,8.35
2017-02-28T00:30:17.379Z,8.38
2017-02-28T00:31:15.999Z,8.33
2017-02-28T00:32:17.580Z,8.32
2017-02-28T00:33:21.605Z,8.40
2017-02-28T00:34:16.618Z,8.32
2017-02-28T00:35:16.711Z,8.34
2017-02-28T00:36:16.987Z,8.31
2017-02-28T00:37:17.487Z,8.27
2017-02-28T00:38:17.502Z,8.32
2017-02-28T00:39:23.367Z,8.32
2017-02-28T00:40:15.470Z,8.33
2017-02-28T00:41:17.216Z,8.32
2017-02-28T00:42:16.946Z,8.33
2017-02-28T00:43:18.346Z,8.30
2017-02-28T00:44:17.021Z,8.37
2017-02-28T00:45:17.548Z,8.28
2017-02-28T00:46:16.161Z,8.27
2017-02-28T00:47:17.422Z,8.28
2017-02-28T00:48:17.107Z,8.26
2017-02-28T00:49:21.868Z,8.29
2017-02-28T00:50:23.779Z,8.32
2017-02-28T00:51:17.555Z,8.35
2017-02-28T00:52:16.851Z,8.33
2017-02-28T00:53:16.902Z,8.28
2017-02-28T00:54:16.967Z,8.27
2017-02-28T00:55:21.737Z,8.27
2017-02-28T00:56:16.739Z,8.27
2017-02-28T00:57:18.468Z,8.27
2017-02-28T00:58:16.787Z,8.30
2017-02-28T00:59:22.164Z,8.26
2017-02-28T01:00:21.833Z,8.25
2017-02-28T01:01:22.262Z,8.20
2017-02-28T01:02:17.460Z,8.16
2017-02-28T01:03:23.302Z,8.24
2017-02-28T01:04:16.912Z,8.25
2017-02-28T01:05:22.380Z,8.22
2017-02-28T01:06:21.967Z,8.16
2017-02-28T01:07:16.601Z,8.18
2017-02-28T01:08:18.161Z,8.19
2017-02-28T01:09:22.781Z,8.19
2017-02-28T01:10:18.950Z,8.17
2017-02-28T01:11:17.434Z,8.19
2017-02-28T01:12:16.613Z,8.17
2017-02-28T01:13:16.625Z,8.14
2017-02-28T01:14:16.738Z,8.16
2017-02-28T01:15:16.866Z,8.18
2017-02-28T01:16:16.996Z,8.10
2017-02-28T01:17:16.355Z,8.05
2017-02-28T01:18:16.758Z,8.07
2017-02-28T01:19:22.000Z,8.07
2017-02-28T01:20:16.971Z,8.11
2017-02-28T01:21:23.548Z,8.08
2017-02-28T01:22:16.674Z,8.05
2017-02-28T01:23:18.420Z,8.08
2017-02-28T01:24:13.962Z,8.02
2017-02-28T01:25:16.970Z,7.98
2017-02-28T01:26:22.076Z,7.95
2017-02-28T01:27:18.424Z,7.95
2017-02-28T01:28:17.612Z,7.98
2017-02-28T01:29:20.763Z,7.98
2017-02-28T01:30:16.577Z,7.92
2017-02-28T01:31:18.217Z,7.93
2017-02-28T01:32:18.357Z,7.98
2017-02-28T01:33:16.608Z,8.02
2017-02-28T01:34:25.742Z,7.98
2017-02-28T01:35:21.895Z,7.97
2017-02-28T01:36:17.027Z,7.96
2017-02-28T01:37:17.145Z,7.94
2017-02-28T01:38:21.832Z,7.96
2017-02-28T01:39:17.143Z,7.95
2017-02-28T01:40:16.665Z,7.83
2017-02-28T01:41:17.449Z,7.81
2017-02-28T01:42:17.590Z,7.82
2017-02-28T01:43:18.457Z,7.81
2017-02-28T01:44:18.168Z,7.85
2017-02-28T01:45:16.881Z,7.83
2017-02-28T01:46:16.713Z,7.86
2017-02-28T01:47:22.668Z,7.81
2017-02-28T01:48:17.496Z,7.88
2017-02-28T01:49:16.605Z,7.83
2017-02-28T01:50:16.980Z,7.84
2017-02-28T01:51:16.761Z,7.79
2017-02-28T01:52:18.381Z,7.80
2017-02-28T01:53:16.893Z,7.79
2017-02-28T01:54:16.891Z,7.85
2017-02-28T01:55:21.971Z,7.79
2017-02-28T01:56:13.187Z,7.84
2017-02-28T01:57:17.480Z,7.69
2017-02-28T01:58:14.880Z,7.76
2017-02-28T01:59:17.183Z,7.73
2017-02-28T02:00:17.801Z,7.73
2017-02-28T02:01:16.881Z,7.81
2017-02-28T02:02:17.237Z,7.77
2017-02-28T02:03:16.879Z,7.76
2017-02-28T02:04:12.724Z,7.74
2017-02-28T02:05:16.782Z,7.84
2017-02-28T02:06:16.901Z,7.69
2017-02-28T02:07:14.057Z,7.78
2017-02-28T02:08:18.214Z,7.83
2017-02-28T02:09:22.397Z,7.83
2017-02-28T02:10:17.613Z,7.80
2017-02-28T02:11:22.422Z,7.73
2017-02-28T02:12:13.751Z,7.78
2017-02-28T02:13:18.548Z,7.89
2017-02-28T02:14:16.903Z,7.86
2017-02-28T02:15:17.029Z,7.93
2017-02-28T02:16:17.030Z,7.89
2017-02-28T02:17:17.549Z,7.95
2017-02-28T02:18:14.365Z,7.94
2017-02-28T02:19:17.505Z,7.93
2017-02-28T02:20:16.688Z,7.88
2017-02-28T02:21:17.499Z,7.91
2017-02-28T02:22:16.595Z,7.90
2017-02-28T02:23:16.894Z,7.91
2017-02-28T02:24:22.009Z,7.92
2017-02-28T02:25:17.308Z,7.89
2017-02-28T02:26:16.894Z,7.98
2017-02-28T02:27:17.200Z,8.00
2017-02-28T02:28:22.152Z,7.92
2017-02-28T02:29:16.830Z,7.92
2017-02-28T02:30:21.768Z,7.89
2017-02-28T02:31:11.944Z,7.86
2017-02-28T02:32:16.928Z,7.81
2017-02-28T02:33:17.049Z,7.89
2017-02-28T02:34:16.914Z,7.88
2017-02-28T02:35:18.354Z,7.93
2017-02-28T02:36:17.038Z,7.80
2017-02-28T02:37:16.701Z,7.90
2017-02-28T02:38:17.412Z,7.87
2017-02-28T02:39:21.735Z,7.89
2017-02-28T02:40:20.743Z,7.89
2017-02-28T02:41:22.597Z,7.87
2017-02-28T02:42:16.954Z,7.84
2017-02-28T02:43:17.555Z,7.76
2017-02-28T02:44:16.663Z,7.75
2017-02-28T02:45:16.614Z,7.69
2017-02-28T02:46:17.411Z,7.71
2017-02-28T02:47:16.676Z,7.72
2017-02-28T02:48:17.595Z,7.60
2017-02-28T02:49:16.728Z,7.65
2017-02-28T02:50:16.853Z,7.68
2017-02-28T02:51:16.954Z,7.66
2017-02-28T02:52:18.405Z,7.62
2017-02-28T02:53:17.517Z,7.66
2017-02-28T02:54:13.677Z,7.63
2017-02-28T02:55:12.952Z,7.66
2017-02-28T02:56:18.385Z,7.65
2017-02-28T02:57:12.420Z,7.60
2017-02-28T02:58:21.912Z,7.62
2017-02-28T02:59:17.321Z,7.58
2017-02-28T03:00:16.934Z,7.61
2017-02-28T03:01:17.000Z,7.60
2017-02-28T03:02:13.288Z,7.64
2017-02-28T03:03:21.920Z,7.59
2017-02-28T03:04:17.024Z,7.51
2017-02-28T03:05:17.331Z,7.57
2017-02-28T03:06:18.367Z,7.58
2017-02-28T03:07:22.789Z,7.55
2017-02-28T03:08:14.082Z,7.56
2017-02-28T03:09:22.377Z,7.62
2017-02-28T03:10:17.288Z,7.57
2017-02-28T03:11:17.385Z,7.59
2017-02-28T03:12:16.997Z,7.61
2017-02-28T03:13:17.166Z,7.58
2017-02-28T03:14:18.274Z,7.59
2017-02-28T03:15:17.062Z,7.53
2017-02-28T03:16:17.163Z,7.60
2017-02-28T03:17:17.028Z,7.53
2017-02-28T03:18:16.779Z,7.53
2017-02-28T03:19:17.702Z,7.46
2017-02-28T03:20:21.796Z,7.54
2017-02-28T03:21:18.423Z,7.40
2017-02-28T03:22:17.570Z,7.45
2017-02-28T03:23:17.347Z,7.47
2017-02-28T03:24:22.623Z,7.46
2017-02-28T03:25:12.971Z,7.42
2017-02-28T03:26:12.674Z,7.38
2017-02-28T03:27:17.842Z,7.44
2017-02-28T03:28:16.138Z,7.35
2017-02-28T03:29:17.341Z,7.36
2017-02-28T03:30:17.061Z,7.40
2017-02-28T03:31:13.532Z,7.34
2017-02-28T03:32:18.211Z,7.33
2017-02-28T03:33:18.508Z,7.34
2017-02-28T03:34:13.412Z,7.29
2017-02-28T03:35:17.273Z,7.26
2017-02-28T03:36:16.857Z,7.30
2017-02-28T03:37:11.737Z,7.28
2017-02-28T03:38:18.522Z,7.24
2017-02-28T03:39:13.900Z,7.27
2017-02-28T03:40:14.718Z,7.19
2017-02-28T03:41:17.152Z,7.11
2017-02-28T03:42:17.086Z,7.06
2017-02-28T03:43:17.369Z,7.19
2017-02-28T03:44:17.557Z,7.11
2017-02-28T03:45:17.178Z,7.12
2017-02-28T03:46:12.567Z,7.05
2017-02-28T03:47:14.410Z,7.03
2017-02-28T03:48:22.646Z,7.05
2017-02-28T03:49:17.079Z,7.06
2017-02-28T03:50:16.708Z,7.01
2017-02-28T03:51:22.256Z,6.93
2017-02-28T03:52:16.918Z,6.90
2017-02-28T03:53:17.516Z,6.90
2017-02-28T03:54:16.759Z,6.87
2017-02-28T03:55:14.338Z,6.83
2017-02-28T03:56:14.346Z,6.80
2017-02-28T03:57:18.230Z,6.85
2017-02-28T03:58:16.963Z,6.81
2017-02-28T03:59:17.272Z,6.83
2017-02-28T04:00:16.806Z,6.88
2017-02-28T04:01:14.120Z,6.82
2017-02-28T04:02:22.752Z,6.76
2017-02-28T04:03:17.266Z,6.73
2017-02-28T04:04:13.106Z,6.71
2017-02-28T04:05:18.225Z,6.72
2017-02-28T04:06:17.406Z,6.74
2017-02-28T04:07:16.606Z,6.62
2017-02-28T04:08:17.533Z,6.61
2017-02-28T04:09:16.826Z,6.52
2017-02-28T04:10:23.277Z,6.49
2017-02-28T04:11:17.227Z,6.60
2017-02-28T04:12:17.352Z,6.49
2017-02-28T04:13:13.705Z,6.57
2017-02-28T04:14:22.711Z,6.48
2017-02-28T04:15:16.842Z,6.43
2017-02-28T04:16:18.460Z,6.35
2017-02-28T04:17:14.533Z,6.44
2017-02-28T04:18:22.981Z,6.48
2017-02-28T04:19:16.868Z,6.38
2017-02-28T04:20:17.239Z,6.39
2017-02-28T04:21:18.291Z,6.33
2017-02-28T04:22:18.496Z,6.50
2017-02-28T04:23:22.433Z,6.37
2017-02-28T04:24:14.996Z,6.26
2017-02-28T04:25:19.633Z,6.34
2017-02-28T04:26:16.878Z,6.39
2017-02-28T04:27:16.732Z,6.42
2017-02-28T04:28:21.956Z,6.37
2017-02-28T04:29:22.341Z,6.30
2017-02-28T04:30:17.456Z,6.27
2017-02-28T04:31:17.997Z,6.40
2017-02-28T04:32:17.210Z,6.43
2017-02-28T04:33:18.253Z,6.46
2017-02-28T04:34:22.829Z,6.55
2017-02-28T04:35:17.026Z,6.70
2017-02-28T04:36:17.573Z,6.82
2017-02-28T04:37:22.300Z,7.01
2017-02-28T04:38:17.023Z,7.05
2017-02-28T04:39:16.702Z,7.12
2017-02-28T04:40:12.149Z,7.13
2017-02-28T04:41:17.022Z,7.18
2017-02-28T04:42:18.146Z,7.28
2017-02-28T04:43:22.707Z,7.35
2017-02-28T04:44:16.789Z,7.29
2017-02-28T04:45:16.912Z,7.40
2017-02-28T04:46:21.700Z,7.46
2017-02-28T04:47:16.769Z,7.54
2017-02-28T04:48:16.789Z,7.61
2017-02-28T04:49:21.680Z,7.64
2017-02-28T04:50:22.029Z,7.71
2017-02-28T04:51:16.710Z,7.70
2017-02-28T04:52:17.021Z,7.67
2017-02-28T04:53:17.297Z,7.54
2017-02-28T04:54:15.996Z,7.52
2017-02-28T04:55:14.715Z,7.40
2017-02-28T04:56:16.842Z,7.36
2017-02-28T04:57:22.326Z,7.31
2017-02-28T04:58:17.173Z,7.17
2017-02-28T04:59:17.417Z,7.10
2017-02-28T05:00:16.584Z,7.20
2017-02-28T05:01:16.839Z,7.11
2017-02-28T05:02:21.969Z,7.00
2017-02-28T05:03:22.096Z,6.98
2017-02-28T05:04:16.716Z,7.05
2017-02-28T05:05:21.677Z,6.96
2017-02-28T05:06:17.223Z,6.89
2017-02-28T05:07:16.861Z,6.86
2017-02-28T05:08:18.551Z,6.82
2017-02-28T05:09:22.481Z,6.74
2017-02-28T05:10:22.783Z,6.59
2017-02-28T05:11:15.963Z,6.54
2017-02-28T05:12:13.970Z,6.75
2017-02-28T05:13:17.338Z,6.52
2017-02-28T05:14:22.709Z,6.71
2017-02-28T05:15:21.708Z,6.44
2017-02-28T05:16:21.991Z,6.47
2017-02-28T05:17:21.848Z,6.38
2017-02-28T05:18:22.806Z,6.27
2017-02-28T05:19:22.650Z,6.30
2017-02-28T05:20:16.985Z,6.38
2017-02-28T05:21:13.330Z,6.35
2017-02-28T05:22:22.812Z,6.29
2017-02-28T05:23:16.589Z,6.35
2017-02-28T05:24:22.332Z,6.43
2017-02-28T05:25:18.456Z,6.47
2017-02-28T05:26:16.541Z,6.40
2017-02-28T05:27:16.708Z,6.45
2017-02-28T05:28:22.563Z,6.36
2017-02-28T05:29:17.392Z,6.46
2017-02-28T05:30:17.498Z,6.55
2017-02-28T05:31:16.612Z,6.35
2017-02-28T05:32:17.503Z,6.34
2017-02-28T05:33:17.469Z,6.39
2017-02-28T05:34:17.091Z,6.27
2017-02-28T05:35:16.574Z,6.37
2017-02-28T05:36:21.965Z,6.46
2017-02-28T05:37:22.177Z,6.61
2017-02-28T05:38:17.923Z,6.31
2017-02-28T05:39:17.788Z,6.19
2017-02-28T05:40:22.459Z,6.30
2017-02-28T05:41:17.494Z,6.12
2017-02-28T05:42:16.786Z,6.31
2017-02-28T05:43:16.653Z,6.31
2017-02-28T05:44:17.404Z,6.38
2017-02-28T05:45:17.525Z,6.53
2017-02-28T05:46:13.931Z,6.50
2017-02-28T05:47:17.498Z,6.52
2017-02-28T05:48:18.158Z,6.32
2017-02-28T05:49:17.336Z,6.55
2017-02-28T05:50:14.666Z,6.47
2017-02-28T05:51:16.705Z,6.50
2017-02-28T05:52:22.180Z,6.30
2017-02-28T05:53:16.847Z,6.39
2017-02-28T05:54:21.593Z,6.49
2017-02-28T05:55:13.301Z,6.33
2017-02-28T05:56:18.004Z,6.35
2017-02-28T05:57:17.483Z,6.40
2017-02-28T05:58:15.660Z,6.40
2017-02-28T05:59:23.460Z,6.55
2017-02-28T06:00:23.568Z,6.55
2017-02-28T06:01:23.377Z,6.66
2017-02-28T06:02:16.851Z,6.60
2017-02-28T06:03:13.739Z,6.65
2017-02-28T06:04:18.374Z,6.76
2017-02-28T06:05:17.180Z,6.92
2017-02-28T06:06:21.950Z,6.48
2017-02-28T06:07:22.866Z,6.59
2017-02-28T06:08:16.701Z,6.56
2017-02-28T06:09:16.833Z,6.49
2017-02-28T06:10:21.970Z,6.06
2017-02-28T06:11:17.390Z,6.08
2017-02-28T06:12:13.114Z,6.39
2017-02-28T06:13:22.979Z,6.40
2017-02-28T06:14:23.018Z,6.46
2017-02-28T06:15:22.869Z,6.40
2017-02-28T06:16:17.192Z,6.62
2017-02-28T06:17:16.609Z,6.34
2017-02-28T06:18:15.207Z,6.35
2017-02-28T06:19:22.878Z,6.19
2017-02-28T06:20:18.423Z,6.18
2017-02-28T06:21:14.833Z,6.15
2017-02-28T06:22:16.938Z,5.89
2017-02-28T06:23:17.846Z,6.04
2017-02-28T06:24:16.761Z,6.03
2017-02-28T06:25:13.503Z,6.04
2017-02-28T06:27:22.666Z,5.90
2017-02-28T06:28:14.111Z,6.00
2017-02-28T06:29:17.348Z,5.61
2017-02-28T06:30:17.169Z,5.89
2017-02-28T06:31:21.892Z,5.86
2017-02-28T06:32:17.375Z,5.66
2017-02-28T06:34:20.897Z,5.78
2017-02-28T06:36:19.119Z,5.91
2017-02-28T06:37:21.892Z,5.78
2017-02-28T06:38:22.311Z,5.44
2017-02-28T06:39:16.957Z,5.53
2017-02-28T06:40:15.794Z,5.49
2017-02-28T06:45:21.917Z,5.53
2017-02-28T06:46:16.686Z,5.74
2017-02-28T06:47:18.111Z,5.91
2017-02-28T06:48:23.696Z,5.87
2017-02-28T06:50:16.963Z,5.78
2017-02-28T06:52:17.257Z,5.62
2017-02-28T06:54:17.208Z,5.63
2017-02-28T06:55:13.792Z,5.52
2017-02-28T06:57:14.779Z,5.61
2017-02-28T06:58:27.876Z,5.64
2017-02-28T06:59:16.653Z,5.69
2017-02-28T07:00:17.270Z,5.63
2017-02-28T07:01:23.391Z,5.77
2017-02-28T07:03:19.176Z,5.84
2017-02-28T07:04:15.426Z,5.82
2017-02-28T07:05:22.351Z,5.86
2017-02-28T07:06:17.474Z,5.69
2017-02-28T07:07:23.378Z,5.48
2017-02-28T07:08:17.025Z,5.51
2017-02-28T07:09:21.130Z,5.27
2017-02-28T07:10:22.878Z,5.30
2017-02-28T07:11:17.693Z,5.35
2017-02-28T07:12:17.308Z,5.56
2017-02-28T07:15:23.687Z,5.23
2017-02-28T07:16:22.944Z,5.46
2017-02-28T07:17:17.728Z,5.58
2017-02-28T07:18:27.867Z,5.50
2017-02-28T07:19:16.109Z,5.56
2017-02-28T07:20:23.095Z,5.18
2017-02-28T07:21:16.587Z,5.54
2017-02-28T07:22:17.495Z,5.44
2017-02-28T07:23:21.879Z,5.52
2017-02-28T07:25:18.679Z,5.45
2017-02-28T07:26:22.388Z,5.08
2017-02-28T07:27:23.215Z,5.02
2017-02-28T07:28:16.849Z,5.20
2017-02-28T07:29:18.354Z,5.20
2017-02-28T07:30:18.505Z,5.62
2017-02-28T07:31:22.710Z,4.96
2017-02-28T07:34:17.664Z,5.34
2017-02-28T07:36:16.754Z,5.40
2017-02-28T07:37:22.552Z,4.72
2017-02-28T07:38:17.308Z,4.98
2017-02-28T07:39:23.722Z,5.28
2017-02-28T07:40:22.438Z,5.42
2017-02-28T07:41:13.900Z,5.65
2017-02-28T07:42:17.240Z,5.95
2017-02-28T07:43:17.276Z,5.92
2017-02-28T07:44:17.442Z,5.81
2017-02-28T07:45:22.789Z,5.85
2017-02-28T07:46:21.833Z,5.66
2017-02-28T07:47:24.479Z,5.76
2017-02-28T07:48:17.521Z,5.47
2017-02-28T07:49:17.247Z,5.56
2017-02-28T07:50:16.998Z,5.26
2017-02-28T07:53:16.740Z,5.76
2017-02-28T07:54:17.171Z,5.90
2017-02-28T07:55:14.304Z,5.88
2017-02-28T07:59:17.380Z,5.67
2017-02-28T08:00:22.002Z,5.82
2017-02-28T08:01:17.636Z,5.41
2017-02-28T08:02:17.769Z,5.58
2017-02-28T08:03:18.454Z,5.65
2017-02-28T08:04:21.878Z,5.80
2017-02-28T08:05:17.079Z,5.25
2017-02-28T08:06:17.252Z,5.71
2017-02-28T08:07:22.714Z,5.77
2017-02-28T08:08:21.323Z,5.80
2017-02-28T08:09:16.952Z,5.78
2017-02-28T08:10:27.778Z,5.62
2017-02-28T08:11:13.539Z,5.19
2017-02-28T08:12:17.105Z,5.49
2017-02-28T08:13:22.391Z,5.61
2017-02-28T08:14:21.077Z,5.59
2017-02-28T08:15:17.371Z,5.68
2017-02-28T08:16:36.944Z,5.63
2017-02-28T08:17:17.116Z,5.85
2017-02-28T08:18:17.195Z,5.42
2017-02-28T08:19:16.808Z,5.37
2017-02-28T08:20:20.178Z,5.64
2017-02-28T08:21:22.618Z,4.94
2017-02-28T08:22:17.762Z,5.08
2017-02-28T08:23:17.510Z,5.05
2017-02-28T08:24:15.549Z,5.30
2017-02-28T08:25:18.427Z,4.90
2017-02-28T08:26:16.566Z,5.15
2017-02-28T08:28:17.133Z,5.33
2017-02-28T08:29:11.923Z,5.56
2017-02-28T08:30:12.286Z,5.61
2017-02-28T08:31:11.882Z,5.60
2017-02-28T08:32:16.730Z,5.94
2017-02-28T08:33:10.411Z,5.61
2017-02-28T08:34:22.474Z,5.81
2017-02-28T08:35:17.233Z,5.74
2017-02-28T08:36:22.052Z,5.69
2017-02-28T08:37:16.832Z,5.64
2017-02-28T08:38:17.147Z,5.83
2017-02-28T08:39:16.846Z,5.79
2017-02-28T08:40:18.716Z,5.81
2017-02-28T08:41:22.407Z,5.83
2017-02-28T08:42:16.129Z,5.74
2017-02-28T08:43:18.409Z,5.92
2017-02-28T08:44:11.943Z,5.88
2017-02-28T08:45:17.482Z,5.78
2017-02-28T08:46:23.364Z,5.82
2017-02-28T08:47:13.804Z,5.88
2017-02-28T08:48:18.437Z,5.79
2017-02-28T08:49:11.816Z,5.82
2017-02-28T08:50:16.978Z,5.77
2017-02-28T08:51:16.906Z,5.83
2017-02-28T08:52:18.052Z,5.77
2017-02-28T08:53:16.157Z,5.92
2017-02-28T08:54:18.367Z,5.98
2017-02-28T08:55:17.405Z,6.17
2017-02-28T08:56:16.144Z,5.94
2017-02-28T08:57:18.579Z,6.11
2017-02-28T08:58:22.876Z,6.09
2017-02-28T08:59:18.068Z,6.03
2017-02-28T09:00:13.227Z,5.97
2017-02-28T09:01:18.428Z,6.10
2017-02-28T09:02:18.105Z,6.08
2017-02-28T09:03:17.265Z,5.91
2017-02-28T09:04:15.888Z,5.99
2017-02-28T09:05:17.407Z,6.07
2017-02-28T09:06:17.148Z,5.88
2017-02-28T09:07:22.244Z,5.96
2017-02-28T09:08:17.366Z,6.03
2017-02-28T09:09:17.402Z,5.94
2017-02-28T09:10:16.467Z,6.04
2017-02-28T09:11:22.781Z,5.99
2017-02-28T09:12:17.084Z,5.87
2017-02-28T09:13:17.632Z,5.87
2017-02-28T09:14:22.822Z,5.99
2017-02-28T09:15:17.006Z,5.96
2017-02-28T09:16:16.771Z,5.87
2017-02-28T09:17:17.347Z,5.89
2017-02-28T09:18:17.468Z,5.73
2017-02-28T09:19:17.307Z,5.70
2017-02-28T09:20:18.734Z,5.85
2017-02-28T09:21:18.387Z,5.82
2017-02-28T09:22:18.553Z,5.90
2017-02-28T09:23:22.697Z,5.96
2017-02-28T09:24:16.901Z,5.81
2017-02-28T09:25:22.825Z,5.63
2017-02-28T09:26:12.613Z,5.72
2017-02-28T09:27:20.010Z,5.82
2017-02-28T09:28:17.798Z,5.92
2017-02-28T09:29:16.200Z,5.79
2017-02-28T09:30:18.484Z,5.69
2017-02-28T09:31:16.220Z,5.90
2017-02-28T09:32:22.823Z,5.76
2017-02-28T09:33:22.745Z,5.90
2017-02-28T09:34:16.936Z,5.90
2017-02-28T09:35:17.598Z,5.85
2017-02-28T09:36:22.157Z,5.86
2017-02-28T09:37:17.127Z,5.81
2017-02-28T09:38:18.557Z,5.77
2017-02-28T09:39:16.957Z,5.59
2017-02-28T09:40:16.977Z,5.71
2017-02-28T09:41:14.506Z,5.69
2017-02-28T09:42:17.604Z,5.69
2017-02-28T09:43:22.061Z,5.59
2017-02-28T09:44:17.461Z,5.84
2017-02-28T09:45:21.617Z,5.77
2017-02-28T09:46:22.488Z,5.80
2017-02-28T09:47:21.709Z,5.96
2017-02-28T09:48:17.351Z,5.98
2017-02-28T09:49:17.539Z,5.94
2017-02-28T09:50:17.146Z,5.77
2017-02-28T09:51:14.709Z,5.74
2017-02-28T09:52:11.881Z,5.89
2017-02-28T09:53:17.846Z,5.76
2017-02-28T09:54:16.831Z,5.85
2017-02-28T09:55:16.926Z,6.03
2017-02-28T09:56:21.853Z,5.69
2017-02-28T09:57:17.225Z,5.83
2017-02-28T09:58:17.862Z,5.71
2017-02-28T09:59:17.518Z,5.80
2017-02-28T10:00:14.662Z,5.91
2017-02-28T10:01:23.185Z,5.72
2017-02-28T10:02:18.082Z,5.81
2017-02-28T10:03:17.338Z,5.81
2017-02-28T10:04:21.833Z,5.93
2017-02-28T10:05:16.873Z,5.96
2017-02-28T10:06:17.436Z,5.75
2017-02-28T10:07:17.602Z,5.79
2017-02-28T10:08:11.915Z,5.89
2017-02-28T10:09:18.508Z,5.85
2017-02-28T10:10:13.060Z,5.87
2017-02-28T10:11:17.291Z,5.70
2017-02-28T10:12:16.761Z,5.76
2017-02-28T10:13:16.973Z,5.72
2017-02-28T10:14:13.487Z,5.87
2017-02-28T10:15:16.895Z,5.93
2017-02-28T10:16:17.165Z,5.78
2017-02-28T10:17:17.796Z,5.78
2017-02-28T10:18:15.128Z,5.64
2017-02-28T10:19:16.836Z,5.82
2017-02-28T10:20:17.108Z,5.76
2017-02-28T10:21:17.261Z,5.91
2017-02-28T10:22:22.720Z,5.95
2017-02-28T10:23:16.909Z,5.81
2017-02-28T10:24:14.278Z,5.72
2017-02-28T10:25:17.854Z,5.63
2017-02-28T10:26:21.892Z,5.49
2017-02-28T10:27:20.677Z,5.71
2017-02-28T10:28:21.742Z,5.71
2017-02-28T10:29:17.024Z,5.65
2017-02-28T10:30:16.936Z,5.75
2017-02-28T10:31:14.471Z,5.56
2017-02-28T10:32:16.635Z,5.84
2017-02-28T10:33:17.138Z,5.70
2017-02-28T10:34:17.360Z,5.59
2017-02-28T10:35:18.026Z,5.65
2017-02-28T10:36:17.245Z,5.60
2017-02-28T10:37:17.419Z,5.32
2017-02-28T10:38:16.637Z,5.48
2017-02-28T10:39:21.850Z,5.51
2017-02-28T10:40:21.627Z,5.60
2017-02-28T10:41:17.851Z,5.84
2017-02-28T10:42:13.822Z,5.82
2017-02-28T10:43:17.918Z,5.66
2017-02-28T10:44:22.241Z,5.70
2017-02-28T10:45:16.873Z,5.79
2017-02-28T10:46:17.060Z,5.51
2017-02-28T10:47:21.905Z,5.59
2017-02-28T10:48:16.690Z,5.67
2017-02-28T10:49:22.569Z,5.63
2017-02-28T10:50:17.406Z,5.66
2017-02-28T10:51:22.265Z,5.66
2017-02-28T10:52:17.151Z,5.45
2017-02-28T10:53:22.271Z,5.37
2017-02-28T10:54:14.187Z,5.35
2017-02-28T10:55:21.736Z,5.52
2017-02-28T10:56:17.023Z,5.62
2017-02-28T10:57:22.270Z,5.60
2017-02-28T10:58:16.780Z,5.56
2017-02-28T10:59:17.372Z,5.59
2017-02-28T11:00:17.550Z,5.42
2017-02-28T11:01:18.272Z,5.36
2017-02-28T11:02:18.414Z,5.39
2017-02-28T11:03:14.027Z,5.06
2017-02-28T11:04:17.257Z,5.32
2017-02-28T11:05:16.791Z,5.35
2017-02-28T11:06:16.987Z,5.66
2017-02-28T11:07:22.641Z,5.43
2017-02-28T11:08:17.013Z,5.49
2017-02-28T11:09:17.294Z,5.40
2017-02-28T11:10:14.611Z,5.62
2017-02-28T11:11:17.095Z,5.47
2017-02-28T11:12:15.123Z,5.48
2017-02-28T11:13:13.795Z,5.30
2017-02-28T11:14:22.493Z,5.62
2017-02-28T11:15:16.650Z,5.39
2017-02-28T11:16:22.756Z,5.18
2017-02-28T11:17:22.312Z,5.38
2017-02-28T11:18:13.661Z,5.13
2017-02-28T11:19:16.903Z,5.07
2017-02-28T11:20:16.653Z,5.11
2017-02-28T11:21:16.258Z,5.00
2017-02-28T11:22:17.980Z,5.19
2017-02-28T11:23:22.314Z,5.28
2017-02-28T11:24:18.016Z,5.39
2017-02-28T11:25:22.446Z,5.44
2017-02-28T11:26:16.716Z,5.53
2017-02-28T11:27:22.507Z,5.40
2017-02-28T11:28:17.517Z,5.59
2017-02-28T11:29:13.957Z,5.28
2017-02-28T11:30:17.198Z,5.21
2017-02-28T11:31:16.817Z,5.05
2017-02-28T11:32:22.295Z,5.28
2017-02-28T11:33:17.265Z,5.24
2017-02-28T11:34:17.614Z,4.97
2017-02-28T11:35:22.672Z,5.15
2017-02-28T11:36:12.651Z,5.17
2017-02-28T11:37:17.492Z,5.31
2017-02-28T11:38:21.715Z,5.24
2017-02-28T11:39:16.729Z,5.56
2017-02-28T11:40:17.521Z,5.38
2017-02-28T11:41:16.998Z,5.54
2017-02-28T11:42:17.144Z,5.46
2017-02-28T11:43:16.933Z,5.37
2017-02-28T11:44:16.797Z,5.28
2017-02-28T11:45:16.605Z,5.27
2017-02-28T11:46:13.448Z,5.39
2017-02-28T11:47:16.208Z,5.46
2017-02-28T11:48:22.865Z,5.62
2017-02-28T11:49:17.031Z,5.55
2017-02-28T11:50:13.634Z,5.61
2017-02-28T11:51:15.245Z,5.67
2017-02-28T11:52:13.672Z,5.81
2017-02-28T11:53:21.944Z,5.66
2017-02-28T11:54:16.193Z,5.60
2017-02-28T11:55:11.657Z,5.69
2017-02-28T11:56:17.284Z,5.45
2017-02-28T11:57:22.912Z,5.59
2017-02-28T11:58:17.145Z,5.58
2017-02-28T11:59:17.338Z,5.73
2017-02-28T12:00:14.655Z,5.53
2017-02-28T12:01:18.400Z,5.41
2017-02-28T12:02:17.044Z,5.46
2017-02-28T12:03:17.048Z,5.53
2017-02-28T12:04:13.678Z,5.64
2017-02-28T12:05:16.940Z,5.48
2017-02-28T12:06:21.564Z,5.62
2017-02-28T12:07:16.887Z,5.70
2017-02-28T12:08:21.964Z,5.33
2017-02-28T12:09:26.306Z,5.23
2017-02-28T12:10:17.555Z,5.19
2017-02-28T12:11:17.504Z,5.38
2017-02-28T12:12:16.691Z,5.39
2017-02-28T12:13:17.684Z,5.44
2017-02-28T12:14:15.846Z,5.70
2017-02-28T12:15:17.974Z,5.88
2017-02-28T12:16:17.899Z,5.93
2017-02-28T12:17:18.215Z,5.83
2017-02-28T12:18:17.050Z,5.77
2017-02-28T12:19:16.937Z,5.84
2017-02-28T12:20:16.599Z,5.27
2017-02-28T12:21:17.009Z,5.45
2017-02-28T12:22:17.258Z,5.51
2017-02-28T12:23:17.633Z,5.54
2017-02-28T12:24:17.491Z,5.72
2017-02-28T12:25:16.384Z,5.86
2017-02-28T12:26:14.873Z,5.83
2017-02-28T12:27:17.547Z,5.72
2017-02-28T12:28:16.672Z,5.72
2017-02-28T12:29:16.657Z,5.63
2017-02-28T12:30:12.419Z,5.62
2017-02-28T12:31:22.325Z,5.46
2017-02-28T12:32:15.345Z,5.48
2017-02-28T12:33:17.713Z,5.55
2017-02-28T12:34:18.016Z,5.59
2017-02-28T12:35:18.016Z,5.68
2017-02-28T12:36:18.183Z,5.68
2017-02-28T12:37:18.065Z,5.67
2017-02-28T12:38:13.808Z,5.65
2017-02-28T12:39:18.376Z,5.36
2017-02-28T12:40:16.890Z,5.56
2017-02-28T12:41:17.465Z,5.44
2017-02-28T12:42:16.651Z,5.66
2017-02-28T12:43:22.588Z,5.72
2017-02-28T12:44:21.599Z,5.81
2017-02-28T12:45:16.628Z,5.81
2017-02-28T12:46:16.727Z,5.94
2017-02-28T12:47:16.968Z,5.84
2017-02-28T12:48:17.530Z,5.98
2017-02-28T12:49:16.691Z,5.69
2017-02-28T12:50:12.132Z,5.90
2017-02-28T12:51:23.173Z,5.98
2017-02-28T12:52:22.357Z,6.01
2017-02-28T12:53:17.417Z,6.13
2017-02-28T12:54:14.348Z,6.16
2017-02-28T12:55:23.185Z,6.37
2017-02-28T12:56:17.432Z,5.99
2017-02-28T12:57:17.797Z,5.92
2017-02-28T12:58:16.988Z,5.82
2017-02-28T12:59:14.554Z,5.84
2017-02-28T13:00:22.407Z,5.74
2017-02-28T13:01:12.224Z,5.95
2017-02-28T13:02:22.542Z,5.96
2017-02-28T13:03:16.792Z,6.00
2017-02-28T13:04:13.655Z,6.01
2017-02-28T13:05:17.268Z,5.92
2017-02-28T13:06:18.080Z,5.70
2017-02-28T13:07:18.209Z,5.90
2017-02-28T13:08:16.304Z,5.97
2017-02-28T13:09:15.837Z,6.04
2017-02-28T13:10:18.200Z,5.99
2017-02-28T13:11:16.614Z,6.06
2017-02-28T13:12:18.416Z,6.11
2017-02-28T13:13:16.583Z,6.17
2017-02-28T13:14:17.599Z,6.18
2017-02-28T13:15:17.637Z,5.88
2017-02-28T13:16:16.596Z,5.89
2017-02-28T13:17:16.858Z,5.96
2017-02-28T13:18:17.095Z,6.07
2017-02-28T13:19:15.029Z,6.00
2017-02-28T13:20:17.944Z,6.10
2017-02-28T13:21:14.448Z,6.13
2017-02-28T13:22:18.544Z,5.83
2017-02-28T13:23:17.553Z,5.57
2017-02-28T13:24:18.107Z,5.61
2017-02-28T13:25:17.868Z,5.92
2017-02-28T13:26:16.864Z,5.84
2017-02-28T13:27:14.408Z,6.06
2017-02-28T13:28:18.459Z,6.19
2017-02-28T13:29:17.294Z,6.37
2017-02-28T13:30:17.501Z,6.42
2017-02-28T13:31:17.207Z,6.30
2017-02-28T13:32:17.950Z,6.23
2017-02-28T13:33:14.576Z,6.02
2017-02-28T13:34:13.915Z,5.81
2017-02-28T13:35:16.727Z,5.95
2017-02-28T13:36:17.412Z,6.27
2017-02-28T13:37:18.103Z,6.19
2017-02-28T13:38:17.767Z,6.01
2017-02-28T13:39:22.582Z,5.98
2017-02-28T13:40:17.887Z,5.97
2017-02-28T13:41:17.077Z,6.14
2017-02-28T13:42:17.271Z,6.21
2017-02-28T13:43:22.631Z,6.28
2017-02-28T13:44:16.794Z,6.20
2017-02-28T13:45:17.234Z,6.09
2017-02-28T13:46:13.823Z,6.22
2017-02-28T13:47:18.169Z,6.32